sensor_id;sensor_type;location;lat;lon;timestamp;P1;durP1;ratioP1;P2;durP2;ratioP2
27365;SDS011;14837;57.148;-2.144;2024-01-30T00:00:33;8.10;;;3.45;;
27365;SDS011;14837;57.148;-2.144;2024-01-30T00:02:59;6.90;;;2.90;;
27365;SDS011;14837;57.148;-2.144;2024-01-30T00:05:26;6.18;;;3.60;;
27365;SDS011;14837;57.148;-2.144;2024-01-30T00:07:52;8.57;;;3.35;;
27365;SDS011;14837;57.148;-2.144;2024-01-30T00:10:19;5.05;;;2.60;;
27365;SDS011;14837;57.148;-2.144;2024-01-30T00:12:46;2.75;;;1.95;;
27365;SDS011;14837;57.148;-2.144;2024-01-30T00:15:12;4.63;;;2.30;;
27365;SDS011;14837;57.148;-2.144;2024-01-30T00:17:39;8.07;;;2.97;;
27365;SDS011;14837;57.148;-2.144;2024-01-30T00:20:06;4.97;;;2.50;;
27365;SDS011;14837;57.148;-2.144;2024-01-30T00:22:33;6.28;;;2.83;;
27365;SDS011;14837;57.148;-2.144;2024-01-30T00:25:00;7.47;;;2.08;;
27365;SDS011;14837;57.148;-2.144;2024-01-30T00:27:26;4.78;;;3.15;;
27365;SDS011;14837;57.148;-2.144;2024-01-30T00:29:54;6.25;;;2.67;;
27365;SDS011;14837;57.148;-2.144;2024-01-30T00:32:20;6.20;;;2.63;;
27365;SDS011;14837;57.148;-2.144;2024-01-30T00:34:47;6.65;;;2.70;;
27365;SDS011;14837;57.148;-2.144;2024-01-30T00:37:13;2.85;;;1.92;;
27365;SDS011;14837;57.148;-2.144;2024-01-30T00:39:40;9.95;;;3.00;;
27365;SDS011;14837;57.148;-2.144;2024-01-30T00:42:07;3.55;;;2.33;;
27365;SDS011;14837;57.148;-2.144;2024-01-30T00:44:36;2.97;;;1.77;;
27365;SDS011;14837;57.148;-2.144;2024-01-30T00:47:06;4.88;;;2.35;;
27365;SDS011;14837;57.148;-2.144;2024-01-30T00:49:32;5.53;;;2.28;;
27365;SDS011;14837;57.148;-2.144;2024-01-30T00:51:59;5.10;;;2.75;;
27365;SDS011;14837;57.148;-2.144;2024-01-30T00:54:26;3.85;;;1.83;;
27365;SDS011;14837;57.148;-2.144;2024-01-30T00:56:52;6.95;;;2.83;;
27365;SDS011;14837;57.148;-2.144;2024-01-30T00:59:19;5.60;;;2.72;;
27365;SDS011;14837;57.148;-2.144;2024-01-30T01:01:45;10.10;;;6.10;;
27365;SDS011;14837;57.148;-2.144;2024-01-30T01:04:12;6.15;;;2.85;;
27365;SDS011;14837;57.148;-2.144;2024-01-30T01:06:39;5.90;;;2.00;;
27365;SDS011;14837;57.148;-2.144;2024-01-30T01:09:05;5.35;;;1.98;;
27365;SDS011;14837;57.148;-2.144;2024-01-30T01:11:32;2.38;;;1.88;;
27365;SDS011;14837;57.148;-2.144;2024-01-30T01:13:58;5.13;;;2.25;;
27365;SDS011;14837;57.148;-2.144;2024-01-30T01:16:25;3.05;;;1.85;;
27365;SDS011;14837;57.148;-2.144;2024-01-30T01:18:51;5.90;;;2.67;;
27365;SDS011;14837;57.148;-2.144;2024-01-30T01:21:18;7.97;;;2.53;;
27365;SDS011;14837;57.148;-2.144;2024-01-30T01:23:45;4.72;;;2.03;;
27365;SDS011;14837;57.148;-2.144;2024-01-30T01:26:11;4.72;;;2.30;;
27365;SDS011;14837;57.148;-2.144;2024-01-30T01:28:39;4.40;;;1.85;;
27365;SDS011;14837;57.148;-2.144;2024-01-30T01:31:05;3.65;;;2.20;;
27365;SDS011;14837;57.148;-2.144;2024-01-30T01:33:32;3.22;;;1.80;;
27365;SDS011;14837;57.148;-2.144;2024-01-30T01:36:00;6.90;;;2.38;;
27365;SDS011;14837;57.148;-2.144;2024-01-30T01:38:29;4.03;;;2.08;;
27365;SDS011;14837;57.148;-2.144;2024-01-30T01:40:55;5.43;;;2.53;;
27365;SDS011;14837;57.148;-2.144;2024-01-30T01:43:22;3.58;;;1.80;;
27365;SDS011;14837;57.148;-2.144;2024-01-30T01:45:48;5.47;;;2.22;;
27365;SDS011;14837;57.148;-2.144;2024-01-30T01:48:15;3.03;;;1.90;;
27365;SDS011;14837;57.148;-2.144;2024-01-30T01:50:42;2.22;;;1.45;;
27365;SDS011;14837;57.148;-2.144;2024-01-30T01:53:09;10.27;;;2.58;;
27365;SDS011;14837;57.148;-2.144;2024-01-30T01:55:36;5.80;;;2.75;;
27365;SDS011;14837;57.148;-2.144;2024-01-30T01:58:03;5.18;;;2.08;;
27365;SDS011;14837;57.148;-2.144;2024-01-30T02:00:30;5.97;;;2.00;;
27365;SDS011;14837;57.148;-2.144;2024-01-30T02:02:57;4.63;;;2.20;;
27365;SDS011;14837;57.148;-2.144;2024-01-30T02:05:25;5.10;;;2.10;;
27365;SDS011;14837;57.148;-2.144;2024-01-30T02:07:52;6.85;;;2.40;;
27365;SDS011;14837;57.148;-2.144;2024-01-30T02:10:20;5.03;;;2.20;;
27365;SDS011;14837;57.148;-2.144;2024-01-30T02:12:48;4.82;;;2.67;;
27365;SDS011;14837;57.148;-2.144;2024-01-30T02:15:14;9.00;;;1.95;;
27365;SDS011;14837;57.148;-2.144;2024-01-30T02:17:41;4.30;;;1.90;;
27365;SDS011;14837;57.148;-2.144;2024-01-30T02:20:08;6.43;;;2.13;;
27365;SDS011;14837;57.148;-2.144;2024-01-30T02:22:35;5.85;;;2.47;;
27365;SDS011;14837;57.148;-2.144;2024-01-30T02:25:02;4.75;;;1.80;;
27365;SDS011;14837;57.148;-2.144;2024-01-30T02:27:29;3.45;;;1.88;;
27365;SDS011;14837;57.148;-2.144;2024-01-30T02:29:55;3.58;;;1.77;;
27365;SDS011;14837;57.148;-2.144;2024-01-30T02:32:22;5.25;;;1.85;;
27365;SDS011;14837;57.148;-2.144;2024-01-30T02:34:48;6.78;;;2.42;;
27365;SDS011;14837;57.148;-2.144;2024-01-30T02:37:16;4.25;;;1.77;;
27365;SDS011;14837;57.148;-2.144;2024-01-30T02:39:43;3.00;;;1.67;;
27365;SDS011;14837;57.148;-2.144;2024-01-30T02:42:09;5.88;;;2.28;;
27365;SDS011;14837;57.148;-2.144;2024-01-30T02:44:36;3.65;;;1.80;;
27365;SDS011;14837;57.148;-2.144;2024-01-30T02:47:02;8.00;;;2.47;;
27365;SDS011;14837;57.148;-2.144;2024-01-30T02:49:29;4.20;;;3.13;;
27365;SDS011;14837;57.148;-2.144;2024-01-30T02:51:56;5.05;;;1.95;;
27365;SDS011;14837;57.148;-2.144;2024-01-30T02:54:23;5.10;;;1.88;;
27365;SDS011;14837;57.148;-2.144;2024-01-30T02:56:50;6.57;;;2.30;;
27365;SDS011;14837;57.148;-2.144;2024-01-30T02:59:16;4.47;;;1.88;;
27365;SDS011;14837;57.148;-2.144;2024-01-30T03:01:43;6.32;;;2.08;;
27365;SDS011;14837;57.148;-2.144;2024-01-30T03:04:11;5.50;;;2.25;;
27365;SDS011;14837;57.148;-2.144;2024-01-30T03:06:38;4.10;;;1.98;;
27365;SDS011;14837;57.148;-2.144;2024-01-30T03:09:04;8.07;;;2.10;;
27365;SDS011;14837;57.148;-2.144;2024-01-30T03:11:31;5.97;;;2.13;;
27365;SDS011;14837;57.148;-2.144;2024-01-30T03:13:58;4.38;;;1.52;;
27365;SDS011;14837;57.148;-2.144;2024-01-30T03:16:24;6.10;;;2.15;;
27365;SDS011;14837;57.148;-2.144;2024-01-30T03:18:51;3.40;;;1.58;;
27365;SDS011;14837;57.148;-2.144;2024-01-30T03:21:17;3.33;;;1.58;;
27365;SDS011;14837;57.148;-2.144;2024-01-30T03:23:44;6.05;;;2.42;;
27365;SDS011;14837;57.148;-2.144;2024-01-30T03:26:10;9.68;;;2.80;;
27365;SDS011;14837;57.148;-2.144;2024-01-30T03:28:39;4.18;;;1.70;;
27365;SDS011;14837;57.148;-2.144;2024-01-30T03:31:05;5.40;;;1.85;;
27365;SDS011;14837;57.148;-2.144;2024-01-30T03:33:32;5.05;;;1.90;;
27365;SDS011;14837;57.148;-2.144;2024-01-30T03:36:02;4.47;;;1.58;;
27365;SDS011;14837;57.148;-2.144;2024-01-30T03:38:29;7.07;;;2.10;;
27365;SDS011;14837;57.148;-2.144;2024-01-30T03:40:55;4.75;;;1.83;;
27365;SDS011;14837;57.148;-2.144;2024-01-30T03:43:22;10.38;;;2.13;;
27365;SDS011;14837;57.148;-2.144;2024-01-30T03:45:48;3.63;;;1.70;;
27365;SDS011;14837;57.148;-2.144;2024-01-30T03:48:15;3.75;;;1.63;;
27365;SDS011;14837;57.148;-2.144;2024-01-30T03:50:41;4.43;;;2.20;;
27365;SDS011;14837;57.148;-2.144;2024-01-30T03:53:08;6.03;;;2.35;;
27365;SDS011;14837;57.148;-2.144;2024-01-30T03:55:34;4.78;;;2.08;;
27365;SDS011;14837;57.148;-2.144;2024-01-30T03:58:01;4.50;;;1.70;;
27365;SDS011;14837;57.148;-2.144;2024-01-30T04:00:28;5.80;;;2.13;;
27365;SDS011;14837;57.148;-2.144;2024-01-30T04:02:54;4.15;;;2.33;;
27365;SDS011;14837;57.148;-2.144;2024-01-30T04:05:21;2.88;;;1.50;;
27365;SDS011;14837;57.148;-2.144;2024-01-30T04:07:48;4.30;;;1.75;;
27365;SDS011;14837;57.148;-2.144;2024-01-30T04:10:14;4.38;;;1.77;;
27365;SDS011;14837;57.148;-2.144;2024-01-30T04:12:41;7.45;;;2.08;;
27365;SDS011;14837;57.148;-2.144;2024-01-30T04:15:08;3.90;;;1.98;;
27365;SDS011;14837;57.148;-2.144;2024-01-30T04:17:34;5.70;;;2.35;;
27365;SDS011;14837;57.148;-2.144;2024-01-30T04:20:01;4.75;;;2.63;;
27365;SDS011;14837;57.148;-2.144;2024-01-30T04:22:28;5.57;;;1.95;;
27365;SDS011;14837;57.148;-2.144;2024-01-30T04:24:54;3.47;;;1.58;;
27365;SDS011;14837;57.148;-2.144;2024-01-30T04:27:21;4.22;;;1.65;;
27365;SDS011;14837;57.148;-2.144;2024-01-30T04:29:47;4.60;;;1.70;;
27365;SDS011;14837;57.148;-2.144;2024-01-30T04:32:14;6.20;;;1.73;;
27365;SDS011;14837;57.148;-2.144;2024-01-30T04:34:40;3.65;;;1.92;;
27365;SDS011;14837;57.148;-2.144;2024-01-30T04:37:07;4.95;;;1.73;;
27365;SDS011;14837;57.148;-2.144;2024-01-30T04:39:34;3.17;;;1.55;;
27365;SDS011;14837;57.148;-2.144;2024-01-30T04:42:00;4.53;;;1.40;;
27365;SDS011;14837;57.148;-2.144;2024-01-30T04:44:27;4.03;;;2.10;;
27365;SDS011;14837;57.148;-2.144;2024-01-30T04:46:53;5.95;;;1.63;;
27365;SDS011;14837;57.148;-2.144;2024-01-30T04:49:20;3.35;;;1.30;;
27365;SDS011;14837;57.148;-2.144;2024-01-30T04:51:46;4.13;;;1.70;;
27365;SDS011;14837;57.148;-2.144;2024-01-30T04:54:13;4.00;;;1.50;;
27365;SDS011;14837;57.148;-2.144;2024-01-30T04:56:40;4.22;;;2.17;;
27365;SDS011;14837;57.148;-2.144;2024-01-30T04:59:06;4.78;;;1.67;;
27365;SDS011;14837;57.148;-2.144;2024-01-30T05:01:34;3.45;;;1.40;;
27365;SDS011;14837;57.148;-2.144;2024-01-30T05:04:01;5.43;;;1.80;;
27365;SDS011;14837;57.148;-2.144;2024-01-30T05:06:30;3.20;;;1.27;;
27365;SDS011;14837;57.148;-2.144;2024-01-30T05:08:56;6.07;;;2.08;;
27365;SDS011;14837;57.148;-2.144;2024-01-30T05:11:23;3.22;;;1.35;;
27365;SDS011;14837;57.148;-2.144;2024-01-30T05:13:49;3.83;;;1.42;;
27365;SDS011;14837;57.148;-2.144;2024-01-30T05:16:16;6.45;;;1.90;;
27365;SDS011;14837;57.148;-2.144;2024-01-30T05:18:42;4.75;;;2.15;;
27365;SDS011;14837;57.148;-2.144;2024-01-30T05:21:10;3.00;;;1.45;;
27365;SDS011;14837;57.148;-2.144;2024-01-30T05:23:36;5.75;;;1.92;;
27365;SDS011;14837;57.148;-2.144;2024-01-30T05:26:03;4.88;;;1.85;;
27365;SDS011;14837;57.148;-2.144;2024-01-30T05:28:30;3.80;;;1.52;;
27365;SDS011;14837;57.148;-2.144;2024-01-30T05:30:56;3.58;;;1.95;;
27365;SDS011;14837;57.148;-2.144;2024-01-30T05:33:23;3.95;;;1.58;;
27365;SDS011;14837;57.148;-2.144;2024-01-30T05:35:50;4.28;;;1.50;;
27365;SDS011;14837;57.148;-2.144;2024-01-30T05:38:16;6.72;;;1.77;;
27365;SDS011;14837;57.148;-2.144;2024-01-30T05:40:43;4.78;;;1.50;;
27365;SDS011;14837;57.148;-2.144;2024-01-30T05:43:09;5.10;;;1.45;;
27365;SDS011;14837;57.148;-2.144;2024-01-30T05:45:36;6.55;;;1.52;;
27365;SDS011;14837;57.148;-2.144;2024-01-30T05:48:03;4.88;;;2.35;;
27365;SDS011;14837;57.148;-2.144;2024-01-30T05:50:29;3.17;;;1.35;;
27365;SDS011;14837;57.148;-2.144;2024-01-30T05:52:56;4.85;;;1.50;;
27365;SDS011;14837;57.148;-2.144;2024-01-30T05:55:22;2.97;;;1.48;;
27365;SDS011;14837;57.148;-2.144;2024-01-30T05:57:49;5.93;;;2.00;;
27365;SDS011;14837;57.148;-2.144;2024-01-30T06:00:17;3.28;;;1.40;;
27365;SDS011;14837;57.148;-2.144;2024-01-30T06:02:43;2.75;;;1.40;;
27365;SDS011;14837;57.148;-2.144;2024-01-30T06:05:10;6.15;;;1.90;;
27365;SDS011;14837;57.148;-2.144;2024-01-30T06:07:36;2.20;;;1.45;;
27365;SDS011;14837;57.148;-2.144;2024-01-30T06:10:03;6.68;;;1.83;;
27365;SDS011;14837;57.148;-2.144;2024-01-30T06:12:30;5.65;;;1.80;;
27365;SDS011;14837;57.148;-2.144;2024-01-30T06:14:56;2.35;;;1.48;;
27365;SDS011;14837;57.148;-2.144;2024-01-30T06:17:23;4.50;;;1.88;;
27365;SDS011;14837;57.148;-2.144;2024-01-30T06:19:50;5.57;;;1.75;;
27365;SDS011;14837;57.148;-2.144;2024-01-30T06:22:16;3.25;;;1.50;;
27365;SDS011;14837;57.148;-2.144;2024-01-30T06:24:43;3.60;;;2.10;;
27365;SDS011;14837;57.148;-2.144;2024-01-30T06:27:11;5.20;;;1.50;;
27365;SDS011;14837;57.148;-2.144;2024-01-30T06:29:38;3.03;;;1.40;;
27365;SDS011;14837;57.148;-2.144;2024-01-30T06:32:04;5.00;;;2.25;;
27365;SDS011;14837;57.148;-2.144;2024-01-30T06:34:31;2.78;;;1.50;;
27365;SDS011;14837;57.148;-2.144;2024-01-30T06:36:58;5.63;;;1.65;;
27365;SDS011;14837;57.148;-2.144;2024-01-30T06:39:24;3.88;;;1.80;;
27365;SDS011;14837;57.148;-2.144;2024-01-30T06:41:51;3.70;;;1.75;;
27365;SDS011;14837;57.148;-2.144;2024-01-30T06:44:18;4.43;;;1.95;;
27365;SDS011;14837;57.148;-2.144;2024-01-30T06:46:44;2.90;;;1.58;;
27365;SDS011;14837;57.148;-2.144;2024-01-30T06:49:11;6.47;;;1.70;;
27365;SDS011;14837;57.148;-2.144;2024-01-30T06:51:37;5.13;;;1.40;;
27365;SDS011;14837;57.148;-2.144;2024-01-30T06:54:04;5.55;;;1.77;;
27365;SDS011;14837;57.148;-2.144;2024-01-30T06:56:30;3.78;;;2.03;;
27365;SDS011;14837;57.148;-2.144;2024-01-30T06:58:57;4.05;;;2.50;;
27365;SDS011;14837;57.148;-2.144;2024-01-30T07:01:29;5.32;;;1.67;;
27365;SDS011;14837;57.148;-2.144;2024-01-30T07:03:56;5.13;;;2.17;;
27365;SDS011;14837;57.148;-2.144;2024-01-30T07:06:23;4.97;;;2.67;;
27365;SDS011;14837;57.148;-2.144;2024-01-30T07:08:50;3.25;;;1.70;;
27365;SDS011;14837;57.148;-2.144;2024-01-30T07:11:20;4.47;;;1.58;;
27365;SDS011;14837;57.148;-2.144;2024-01-30T07:13:50;2.88;;;1.67;;
27365;SDS011;14837;57.148;-2.144;2024-01-30T07:16:17;4.97;;;1.90;;
27365;SDS011;14837;57.148;-2.144;2024-01-30T07:18:44;5.03;;;1.88;;
27365;SDS011;14837;57.148;-2.144;2024-01-30T07:21:12;6.07;;;1.73;;
27365;SDS011;14837;57.148;-2.144;2024-01-30T07:23:38;2.17;;;1.65;;
27365;SDS011;14837;57.148;-2.144;2024-01-30T07:26:05;3.10;;;1.70;;
27365;SDS011;14837;57.148;-2.144;2024-01-30T07:28:33;4.38;;;1.83;;
27365;SDS011;14837;57.148;-2.144;2024-01-30T07:31:00;3.00;;;1.60;;
27365;SDS011;14837;57.148;-2.144;2024-01-30T07:33:27;4.22;;;1.50;;
27365;SDS011;14837;57.148;-2.144;2024-01-30T07:35:55;5.72;;;2.70;;
27365;SDS011;14837;57.148;-2.144;2024-01-30T07:38:24;6.00;;;2.55;;
27365;SDS011;14837;57.148;-2.144;2024-01-30T07:40:51;6.63;;;1.70;;
27365;SDS011;14837;57.148;-2.144;2024-01-30T07:43:17;3.22;;;1.20;;
27365;SDS011;14837;57.148;-2.144;2024-01-30T07:45:44;5.43;;;2.00;;
27365;SDS011;14837;57.148;-2.144;2024-01-30T07:48:10;4.00;;;1.45;;
27365;SDS011;14837;57.148;-2.144;2024-01-30T07:50:37;5.80;;;2.10;;
27365;SDS011;14837;57.148;-2.144;2024-01-30T07:53:04;4.28;;;1.73;;
27365;SDS011;14837;57.148;-2.144;2024-01-30T07:55:30;3.85;;;1.42;;
27365;SDS011;14837;57.148;-2.144;2024-01-30T07:57:59;4.85;;;2.00;;
27365;SDS011;14837;57.148;-2.144;2024-01-30T08:00:26;6.05;;;1.65;;
27365;SDS011;14837;57.148;-2.144;2024-01-30T08:02:53;5.95;;;2.28;;
27365;SDS011;14837;57.148;-2.144;2024-01-30T08:05:23;4.10;;;1.80;;
27365;SDS011;14837;57.148;-2.144;2024-01-30T08:07:50;2.97;;;1.25;;
27365;SDS011;14837;57.148;-2.144;2024-01-30T08:10:17;5.78;;;1.92;;
27365;SDS011;14837;57.148;-2.144;2024-01-30T08:12:47;3.28;;;1.50;;
27365;SDS011;14837;57.148;-2.144;2024-01-30T08:15:13;6.97;;;2.20;;
27365;SDS011;14837;57.148;-2.144;2024-01-30T08:17:40;5.43;;;1.67;;
27365;SDS011;14837;57.148;-2.144;2024-01-30T08:20:07;2.30;;;1.63;;
27365;SDS011;14837;57.148;-2.144;2024-01-30T08:22:35;4.75;;;1.77;;
27365;SDS011;14837;57.148;-2.144;2024-01-30T08:25:01;1.90;;;1.23;;
27365;SDS011;14837;57.148;-2.144;2024-01-30T08:27:28;2.65;;;1.33;;
27365;SDS011;14837;57.148;-2.144;2024-01-30T08:29:55;3.55;;;1.48;;
27365;SDS011;14837;57.148;-2.144;2024-01-30T08:32:21;4.47;;;2.38;;
27365;SDS011;14837;57.148;-2.144;2024-01-30T08:34:48;2.90;;;1.70;;
27365;SDS011;14837;57.148;-2.144;2024-01-30T08:37:14;4.70;;;1.60;;
27365;SDS011;14837;57.148;-2.144;2024-01-30T08:39:46;4.28;;;2.33;;
27365;SDS011;14837;57.148;-2.144;2024-01-30T08:42:12;5.47;;;2.83;;
27365;SDS011;14837;57.148;-2.144;2024-01-30T08:44:39;3.92;;;2.08;;
27365;SDS011;14837;57.148;-2.144;2024-01-30T08:47:05;2.60;;;2.22;;
27365;SDS011;14837;57.148;-2.144;2024-01-30T08:49:32;6.95;;;1.90;;
27365;SDS011;14837;57.148;-2.144;2024-01-30T08:51:59;6.20;;;1.63;;
27365;SDS011;14837;57.148;-2.144;2024-01-30T08:54:25;7.55;;;1.67;;
27365;SDS011;14837;57.148;-2.144;2024-01-30T08:56:52;5.38;;;1.75;;
27365;SDS011;14837;57.148;-2.144;2024-01-30T08:59:19;3.33;;;2.60;;
27365;SDS011;14837;57.148;-2.144;2024-01-30T09:01:46;2.50;;;1.50;;
27365;SDS011;14837;57.148;-2.144;2024-01-30T09:04:28;4.53;;;1.92;;
27365;SDS011;14837;57.148;-2.144;2024-01-30T09:06:55;2.03;;;1.55;;
27365;SDS011;14837;57.148;-2.144;2024-01-30T09:09:22;5.15;;;1.67;;
27365;SDS011;14837;57.148;-2.144;2024-01-30T09:11:48;4.72;;;1.98;;
27365;SDS011;14837;57.148;-2.144;2024-01-30T09:14:15;2.65;;;1.52;;
27365;SDS011;14837;57.148;-2.144;2024-01-30T09:16:41;3.10;;;1.65;;
27365;SDS011;14837;57.148;-2.144;2024-01-30T09:19:08;4.07;;;2.33;;
27365;SDS011;14837;57.148;-2.144;2024-01-30T09:21:35;3.15;;;1.83;;
27365;SDS011;14837;57.148;-2.144;2024-01-30T09:24:02;2.67;;;1.95;;
27365;SDS011;14837;57.148;-2.144;2024-01-30T09:26:31;3.83;;;1.65;;
27365;SDS011;14837;57.148;-2.144;2024-01-30T09:28:58;4.53;;;2.22;;
27365;SDS011;14837;57.148;-2.144;2024-01-30T09:31:24;4.43;;;1.75;;
27365;SDS011;14837;57.148;-2.144;2024-01-30T09:33:51;5.25;;;1.75;;
27365;SDS011;14837;57.148;-2.144;2024-01-30T09:36:20;5.35;;;2.40;;
27365;SDS011;14837;57.148;-2.144;2024-01-30T09:38:47;3.15;;;1.70;;
27365;SDS011;14837;57.148;-2.144;2024-01-30T09:41:14;3.47;;;1.42;;
27365;SDS011;14837;57.148;-2.144;2024-01-30T09:43:41;1.90;;;1.40;;
27365;SDS011;14837;57.148;-2.144;2024-01-30T09:46:11;2.35;;;1.70;;
27365;SDS011;14837;57.148;-2.144;2024-01-30T09:48:40;5.35;;;2.03;;
27365;SDS011;14837;57.148;-2.144;2024-01-30T09:51:08;4.15;;;1.52;;
27365;SDS011;14837;57.148;-2.144;2024-01-30T09:53:35;2.55;;;1.20;;
27365;SDS011;14837;57.148;-2.144;2024-01-30T09:56:02;5.68;;;1.60;;
27365;SDS011;14837;57.148;-2.144;2024-01-30T09:58:29;5.18;;;2.00;;
27365;SDS011;14837;57.148;-2.144;2024-01-30T10:00:55;7.72;;;2.45;;
27365;SDS011;14837;57.148;-2.144;2024-01-30T10:03:24;3.55;;;1.95;;
27365;SDS011;14837;57.148;-2.144;2024-01-30T10:05:51;2.40;;;1.35;;
27365;SDS011;14837;57.148;-2.144;2024-01-30T10:08:21;6.70;;;2.05;;
27365;SDS011;14837;57.148;-2.144;2024-01-30T10:10:48;3.30;;;1.52;;
27365;SDS011;14837;57.148;-2.144;2024-01-30T10:13:16;2.75;;;1.77;;
27365;SDS011;14837;57.148;-2.144;2024-01-30T10:15:43;4.97;;;2.08;;
27365;SDS011;14837;57.148;-2.144;2024-01-30T10:18:09;2.53;;;1.52;;
27365;SDS011;14837;57.148;-2.144;2024-01-30T10:20:36;5.15;;;2.00;;
27365;SDS011;14837;57.148;-2.144;2024-01-30T10:23:03;5.07;;;1.95;;
27365;SDS011;14837;57.148;-2.144;2024-01-30T10:25:33;2.92;;;1.48;;
27365;SDS011;14837;57.148;-2.144;2024-01-30T10:28:00;3.80;;;1.88;;
27365;SDS011;14837;57.148;-2.144;2024-01-30T10:30:27;3.97;;;1.25;;
27365;SDS011;14837;57.148;-2.144;2024-01-30T10:32:54;3.92;;;1.52;;
27365;SDS011;14837;57.148;-2.144;2024-01-30T10:35:21;3.85;;;2.50;;
27365;SDS011;14837;57.148;-2.144;2024-01-30T10:37:47;2.67;;;1.40;;
27365;SDS011;14837;57.148;-2.144;2024-01-30T10:40:15;3.97;;;1.50;;
27365;SDS011;14837;57.148;-2.144;2024-01-30T10:42:44;6.47;;;1.55;;
27365;SDS011;14837;57.148;-2.144;2024-01-30T10:45:12;3.65;;;1.25;;
27365;SDS011;14837;57.148;-2.144;2024-01-30T10:47:40;1.65;;;1.10;;
27365;SDS011;14837;57.148;-2.144;2024-01-30T10:50:09;2.45;;;1.00;;
27365;SDS011;14837;57.148;-2.144;2024-01-30T10:52:37;4.35;;;1.30;;
27365;SDS011;14837;57.148;-2.144;2024-01-30T10:55:04;2.67;;;1.20;;
27365;SDS011;14837;57.148;-2.144;2024-01-30T10:57:34;1.20;;;1.00;;
27365;SDS011;14837;57.148;-2.144;2024-01-30T11:00:05;1.20;;;1.10;;
27365;SDS011;14837;57.148;-2.144;2024-01-30T11:02:40;3.65;;;1.65;;
27365;SDS011;14837;57.148;-2.144;2024-01-30T11:05:07;1.67;;;1.02;;
27365;SDS011;14837;57.148;-2.144;2024-01-30T11:07:35;3.65;;;1.42;;
27365;SDS011;14837;57.148;-2.144;2024-01-30T11:10:03;3.70;;;1.20;;
27365;SDS011;14837;57.148;-2.144;2024-01-30T11:12:31;2.15;;;1.58;;
27365;SDS011;14837;57.148;-2.144;2024-01-30T11:17:40;2.70;;;1.52;;
27365;SDS011;14837;57.148;-2.144;2024-01-30T11:20:10;2.25;;;1.20;;
27365;SDS011;14837;57.148;-2.144;2024-01-30T11:22:38;1.73;;;1.33;;
27365;SDS011;14837;57.148;-2.144;2024-01-30T11:25:10;2.53;;;1.02;;
27365;SDS011;14837;57.148;-2.144;2024-01-30T11:27:37;2.30;;;0.95;;
27365;SDS011;14837;57.148;-2.144;2024-01-30T11:30:04;2.00;;;0.63;;
27365;SDS011;14837;57.148;-2.144;2024-01-30T11:32:31;2.00;;;0.90;;
27365;SDS011;14837;57.148;-2.144;2024-01-30T11:34:58;1.73;;;0.82;;
27365;SDS011;14837;57.148;-2.144;2024-01-30T11:37:25;0.95;;;0.77;;
27365;SDS011;14837;57.148;-2.144;2024-01-30T11:39:55;2.40;;;1.02;;
27365;SDS011;14837;57.148;-2.144;2024-01-30T11:42:23;2.05;;;1.15;;
27365;SDS011;14837;57.148;-2.144;2024-01-30T11:44:51;2.05;;;1.20;;
27365;SDS011;14837;57.148;-2.144;2024-01-30T11:47:17;1.33;;;0.80;;
27365;SDS011;14837;57.148;-2.144;2024-01-30T11:49:44;2.22;;;1.13;;
27365;SDS011;14837;57.148;-2.144;2024-01-30T11:52:13;1.52;;;0.80;;
27365;SDS011;14837;57.148;-2.144;2024-01-30T11:54:40;1.60;;;1.40;;
27365;SDS011;14837;57.148;-2.144;2024-01-30T11:57:07;4.55;;;1.83;;
27365;SDS011;14837;57.148;-2.144;2024-01-30T11:59:33;3.40;;;1.40;;
27365;SDS011;14837;57.148;-2.144;2024-01-30T12:02:00;2.45;;;0.98;;
27365;SDS011;14837;57.148;-2.144;2024-01-30T12:04:29;1.20;;;0.90;;
27365;SDS011;14837;57.148;-2.144;2024-01-30T12:06:56;0.80;;;0.68;;
27365;SDS011;14837;57.148;-2.144;2024-01-30T12:09:24;2.97;;;0.80;;
27365;SDS011;14837;57.148;-2.144;2024-01-30T12:11:50;2.90;;;0.95;;
27365;SDS011;14837;57.148;-2.144;2024-01-30T12:14:17;1.83;;;1.00;;
27365;SDS011;14837;57.148;-2.144;2024-01-30T12:16:48;1.58;;;1.10;;
27365;SDS011;14837;57.148;-2.144;2024-01-30T12:19:21;2.40;;;0.93;;
27365;SDS011;14837;57.148;-2.144;2024-01-30T12:21:47;1.70;;;0.90;;
27365;SDS011;14837;57.148;-2.144;2024-01-30T12:24:14;3.38;;;0.98;;
27365;SDS011;14837;57.148;-2.144;2024-01-30T12:26:40;3.45;;;1.10;;
27365;SDS011;14837;57.148;-2.144;2024-01-30T12:29:07;1.92;;;0.93;;
27365;SDS011;14837;57.148;-2.144;2024-01-30T12:31:33;2.67;;;0.98;;
27365;SDS011;14837;57.148;-2.144;2024-01-30T12:34:01;1.85;;;0.73;;
27365;SDS011;14837;57.148;-2.144;2024-01-30T12:36:28;1.70;;;0.82;;
27365;SDS011;14837;57.148;-2.144;2024-01-30T12:38:55;1.27;;;0.90;;
27365;SDS011;14837;57.148;-2.144;2024-01-30T12:41:24;4.00;;;1.00;;
27365;SDS011;14837;57.148;-2.144;2024-01-30T12:43:56;1.23;;;1.08;;
27365;SDS011;14837;57.148;-2.144;2024-01-30T12:46:29;1.60;;;1.05;;
27365;SDS011;14837;57.148;-2.144;2024-01-30T12:48:55;1.48;;;0.90;;
27365;SDS011;14837;57.148;-2.144;2024-01-30T12:51:22;2.15;;;0.90;;
27365;SDS011;14837;57.148;-2.144;2024-01-30T12:53:49;1.25;;;0.70;;
27365;SDS011;14837;57.148;-2.144;2024-01-30T12:56:16;1.23;;;0.90;;
27365;SDS011;14837;57.148;-2.144;2024-01-30T12:58:42;1.08;;;0.80;;
27365;SDS011;14837;57.148;-2.144;2024-01-30T13:01:11;2.83;;;1.10;;
27365;SDS011;14837;57.148;-2.144;2024-01-30T13:03:37;1.90;;;1.10;;
27365;SDS011;14837;57.148;-2.144;2024-01-30T13:06:04;2.60;;;0.80;;
27365;SDS011;14837;57.148;-2.144;2024-01-30T13:08:31;2.13;;;0.90;;
27365;SDS011;14837;57.148;-2.144;2024-01-30T13:10:57;1.27;;;0.88;;
27365;SDS011;14837;57.148;-2.144;2024-01-30T13:13:24;2.17;;;1.10;;
27365;SDS011;14837;57.148;-2.144;2024-01-30T13:15:51;1.88;;;1.17;;
27365;SDS011;14837;57.148;-2.144;2024-01-30T13:18:18;1.40;;;0.98;;
27365;SDS011;14837;57.148;-2.144;2024-01-30T13:20:44;2.90;;;1.15;;
27365;SDS011;14837;57.148;-2.144;2024-01-30T13:23:11;1.35;;;0.85;;
27365;SDS011;14837;57.148;-2.144;2024-01-30T13:25:37;0.73;;;0.60;;
27365;SDS011;14837;57.148;-2.144;2024-01-30T13:28:04;1.77;;;0.80;;
27365;SDS011;14837;57.148;-2.144;2024-01-30T13:30:30;1.15;;;0.90;;
27365;SDS011;14837;57.148;-2.144;2024-01-30T13:32:57;1.55;;;0.80;;
27365;SDS011;14837;57.148;-2.144;2024-01-30T13:35:25;1.58;;;1.20;;
27365;SDS011;14837;57.148;-2.144;2024-01-30T13:37:51;1.67;;;0.70;;
27365;SDS011;14837;57.148;-2.144;2024-01-30T13:40:18;1.55;;;0.80;;
27365;SDS011;14837;57.148;-2.144;2024-01-30T13:42:45;1.05;;;0.85;;
27365;SDS011;14837;57.148;-2.144;2024-01-30T13:45:11;1.00;;;0.68;;
27365;SDS011;14837;57.148;-2.144;2024-01-30T13:47:38;0.98;;;0.80;;
27365;SDS011;14837;57.148;-2.144;2024-01-30T13:50:05;1.95;;;1.00;;
27365;SDS011;14837;57.148;-2.144;2024-01-30T13:52:33;1.83;;;0.90;;
27365;SDS011;14837;57.148;-2.144;2024-01-30T13:55:10;1.17;;;0.80;;
27365;SDS011;14837;57.148;-2.144;2024-01-30T13:57:37;0.57;;;0.50;;
27365;SDS011;14837;57.148;-2.144;2024-01-30T14:00:03;1.30;;;0.73;;
27365;SDS011;14837;57.148;-2.144;2024-01-30T14:02:34;1.30;;;0.88;;
27365;SDS011;14837;57.148;-2.144;2024-01-30T14:05:00;1.23;;;0.63;;
27365;SDS011;14837;57.148;-2.144;2024-01-30T14:07:27;0.80;;;0.65;;
27365;SDS011;14837;57.148;-2.144;2024-01-30T14:09:54;0.82;;;0.63;;
27365;SDS011;14837;57.148;-2.144;2024-01-30T14:12:21;1.08;;;0.65;;
27365;SDS011;14837;57.148;-2.144;2024-01-30T14:14:48;1.48;;;0.80;;
27365;SDS011;14837;57.148;-2.144;2024-01-30T14:17:14;0.85;;;0.75;;
27365;SDS011;14837;57.148;-2.144;2024-01-30T14:19:41;3.15;;;1.30;;
27365;SDS011;14837;57.148;-2.144;2024-01-30T14:22:07;1.77;;;1.25;;
27365;SDS011;14837;57.148;-2.144;2024-01-30T14:24:36;1.33;;;0.90;;
27365;SDS011;14837;57.148;-2.144;2024-01-30T14:27:03;2.47;;;1.20;;
27365;SDS011;14837;57.148;-2.144;2024-01-30T14:29:30;1.92;;;0.90;;
27365;SDS011;14837;57.148;-2.144;2024-01-30T14:31:57;1.38;;;0.75;;
27365;SDS011;14837;57.148;-2.144;2024-01-30T14:34:23;0.77;;;0.77;;